Time;durP1;ratioP1;P1;durP2;ratioP2;P2;SDS_P1;SDS_P2;PMS_P1;PMS_P2;Temp;Humidity;BMP_temperature;BMP_pressure;BME280_temperature;BME280_humidity;BME280_pressure;Samples;Min_cycle;Max_cycle;Signal;HPM_P1;HPM_P2
2022/06/26 00:01:52;;;;;;;4.78;3.83;;;;;;;;;;4303399;33;20556;-63
2022/06/26 00:32:45;;;;;;;3.55;3.25;;;;;;;;;;5049357;27;20046;-61
2022/06/26 00:35:11;;;;;;;7.03;4.05;;;;;;;;;;4299739;33;20119;-63
2022/06/26 00:37:37;;;;;;;7.53;4.07;;;;;;;;;;4296838;33;20147;-61
2022/06/26 00:40:04;;;;;;;5.37;3.83;;;;;;;;;;4282098;33;20222;-62
2022/06/26 00:42:30;;;;;;;5.37;3.25;;;;;;;;;;4272760;33;20112;-61
2022/06/26 00:44:56;;;;;;;6.20;4.10;;;;;;;;;;4277353;33;20080;-62
2022/06/26 00:47:23;;;;;;;10.13;3.75;;;;;;;;;;4278655;33;20096;-62
2022/06/26 00:49:49;;;;;;;7.60;5.03;;;;;;;;;;4277333;33;20227;-62
2022/06/26 00:52:16;;;;;;;7.15;4.20;;;;;;;;;;4290707;33;20166;-61
2022/06/26 00:54:43;;;;;;;5.45;3.47;;;;;;;;;;4290688;33;20095;-61
2022/06/26 00:57:09;;;;;;;5.85;3.85;;;;;;;;;;4277288;33;20188;-62
2022/06/26 00:59:36;;;;;;;11.00;3.78;;;;;;;;;;4269125;33;20104;-62
2022/06/26 01:02:02;;;;;;;8.93;4.43;;;;;;;;;;4263201;33;20111;-62
2022/06/26 01:04:28;;;;;;;7.68;4.05;;;;;;;;;;4276052;33;20463;-61
2022/06/26 01:06:54;;;;;;;7.37;4.43;;;;;;;;;;4276589;33;20112;-62
2022/06/26 01:09:20;;;;;;;4.62;3.58;;;;;;;;;;4276469;33;20132;-62
2022/06/26 01:11:47;;;;;;;8.88;5.03;;;;;;;;;;4276696;33;20119;-62
2022/06/26 01:14:13;;;;;;;7.12;4.25;;;;;;;;;;4276215;33;20143;-62
2022/06/26 01:16:40;;;;;;;10.95;4.60;;;;;;;;;;4277296;33;20122;-62
2022/06/26 01:19:07;;;;;;;11.52;4.18;;;;;;;;;;4290547;33;20145;-61
2022/06/26 01:21:33;;;;;;;5.43;4.22;;;;;;;;;;4290416;33;20123;-62
2022/06/26 01:24:00;;;;;;;7.68;3.60;;;;;;;;;;4290667;33;20111;-62
2022/06/26 01:26:26;;;;;;;9.82;3.65;;;;;;;;;;4290303;33;20466;-63
2022/06/26 01:28:52;;;;;;;4.65;3.60;;;;;;;;;;4290196;33;20764;-62
2022/06/26 01:31:19;;;;;;;4.70;3.62;;;;;;;;;;4290270;33;20535;-62
2022/06/26 01:33:47;;;;;;;8.90;3.95;;;;;;;;;;4290249;33;20116;-62
2022/06/26 01:36:13;;;;;;;7.30;3.78;;;;;;;;;;4276254;33;20119;-63
2022/06/26 01:38:39;;;;;;;5.72;3.53;;;;;;;;;;4276917;33;20107;-62
2022/06/26 01:41:05;;;;;;;5.30;3.60;;;;;;;;;;4276890;33;20138;-62
2022/06/26 01:43:33;;;;;;;5.85;3.58;;;;;;;;;;4290150;33;20120;-62
2022/06/26 01:45:59;;;;;;;7.32;3.67;;;;;;;;;;4290262;33;20471;-62
2022/06/26 01:48:26;;;;;;;7.40;3.90;;;;;;;;;;4290113;33;20545;-63
2022/06/26 01:50:56;;;;;;;7.72;3.72;;;;;;;;;;4290213;33;20182;-63
2022/06/26 01:53:22;;;;;;;7.53;3.95;;;;;;;;;;4290011;33;20123;-61
2022/06/26 01:55:48;;;;;;;7.53;3.95;;;;;;;;;;4290097;33;20088;-62
2022/06/26 01:58:14;;;;;;;8.90;4.18;;;;;;;;;;4290351;33;20123;-63
2022/06/26 02:00:42;;;;;;;10.68;4.28;;;;;;;;;;4290076;33;20103;-63
2022/06/26 02:03:09;;;;;;;6.72;3.80;;;;;;;;;;4290299;33;20264;-62
2022/06/26 02:05:35;;;;;;;4.55;3.90;;;;;;;;;;4290003;33;20190;-63
2022/06/26 02:08:02;;;;;;;6.97;3.92;;;;;;;;;;4289836;33;20098;-63
2022/06/26 02:15:58;;;;;;;4.70;3.00;;;;;;;;;;4290051;33;20084;-63
2022/06/26 02:18:24;;;;;;;9.23;4.62;;;;;;;;;;4275851;33;20139;-62
2022/06/26 02:20:50;;;;;;;5.30;3.62;;;;;;;;;;4275567;33;20104;-63
2022/06/26 02:23:16;;;;;;;6.87;3.22;;;;;;;;;;4275803;33;20108;-62
2022/06/26 02:25:42;;;;;;;5.97;3.92;;;;;;;;;;4262222;33;20139;-62
2022/06/26 02:28:08;;;;;;;9.23;4.18;;;;;;;;;;4275370;33;20102;-62
2022/06/26 02:30:35;;;;;;;6.28;3.92;;;;;;;;;;4275687;33;20104;-62
2022/06/26 02:33:01;;;;;;;6.75;3.72;;;;;;;;;;4275318;33;20171;-62
2022/06/26 02:35:28;;;;;;;4.90;3.92;;;;;;;;;;4262253;33;20514;-62
2022/06/26 02:37:54;;;;;;;7.15;3.75;;;;;;;;;;4275225;33;20112;-63
2022/06/26 02:40:22;;;;;;;8.00;3.97;;;;;;;;;;4275431;33;20106;-63
2022/06/26 02:42:48;;;;;;;9.32;3.97;;;;;;;;;;4277990;33;20099;-62
2022/06/26 02:45:14;;;;;;;5.78;4.00;;;;;;;;;;4289685;33;20107;-62
2022/06/26 02:47:40;;;;;;;8.00;3.22;;;;;;;;;;4289486;33;20135;-62
2022/06/26 02:50:07;;;;;;;7.90;3.47;;;;;;;;;;4290004;33;20096;-62
2022/06/26 02:52:34;;;;;;;6.37;3.25;;;;;;;;;;4276214;33;20510;-63
2022/06/26 02:55:00;;;;;;;10.85;3.92;;;;;;;;;;4276377;33;20451;-62
2022/06/26 02:57:27;;;;;;;5.03;3.08;;;;;;;;;;4289563;33;20108;-62
2022/06/26 02:59:53;;;;;;;5.70;3.42;;;;;;;;;;4276425;33;20109;-63
2022/06/26 03:02:19;;;;;;;5.15;3.55;;;;;;;;;;4289665;33;20114;-62
2022/06/26 03:04:45;;;;;;;7.05;3.75;;;;;;;;;;4289501;33;20209;-62
2022/06/26 03:07:11;;;;;;;11.23;4.30;;;;;;;;;;4276083;33;20143;-62
2022/06/26 03:09:37;;;;;;;8.80;4.82;;;;;;;;;;4289304;33;20530;-62
2022/06/26 03:12:04;;;;;;;10.65;6.50;;;;;;;;;;4276209;33;20095;-62
2022/06/26 03:14:30;;;;;;;6.93;3.47;;;;;;;;;;4276026;33;20108;-62
2022/06/26 03:16:57;;;;;;;6.20;3.53;;;;;;;;;;4289334;33;20216;-62
2022/06/26 03:19:23;;;;;;;9.10;3.97;;;;;;;;;;4276113;33;20127;-62
2022/06/26 03:21:49;;;;;;;8.35;3.42;;;;;;;;;;4276168;33;20194;-62
2022/06/26 03:24:15;;;;;;;4.22;3.28;;;;;;;;;;4289382;33;20125;-62
2022/06/26 03:26:41;;;;;;;5.20;3.25;;;;;;;;;;4289260;33;20541;-62
2022/06/26 03:29:09;;;;;;;6.20;3.08;;;;;;;;;;4276030;33;20139;-61
2022/06/26 03:31:35;;;;;;;5.43;2.78;;;;;;;;;;4289257;33;20456;-62
2022/06/26 03:34:01;;;;;;;4.87;3.05;;;;;;;;;;4289307;33;20200;-63
2022/06/26 03:36:30;;;;;;;3.60;2.75;;;;;;;;;;4275742;33;20176;-63
2022/06/26 03:38:56;;;;;;;6.10;2.92;;;;;;;;;;4289078;33;20194;-63
2022/06/26 03:41:22;;;;;;;6.85;3.53;;;;;;;;;;4289059;33;20131;-63
2022/06/26 03:43:48;;;;;;;4.18;2.75;;;;;;;;;;4289074;33;20130;-63
2022/06/26 03:46:15;;;;;;;5.97;2.78;;;;;;;;;;4289164;33;20108;-63
2022/06/26 03:48:41;;;;;;;5.15;2.83;;;;;;;;;;4289008;33;20531;-63
2022/06/26 03:51:07;;;;;;;3.40;2.70;;;;;;;;;;4289147;33;20100;-63
2022/06/26 03:53:34;;;;;;;3.28;2.55;;;;;;;;;;4289188;33;20196;-63
2022/06/26 03:56:01;;;;;;;6.35;3.37;;;;;;;;;;4275682;33;20131;-63
2022/06/26 03:58:27;;;;;;;4.18;2.53;;;;;;;;;;4288729;33;20199;-63
2022/06/26 04:00:53;;;;;;;4.00;3.15;;;;;;;;;;4289270;33;20100;-63
2022/06/26 04:03:20;;;;;;;7.65;3.33;;;;;;;;;;4275419;33;20110;-63
2022/06/26 04:05:46;;;;;;;4.03;2.90;;;;;;;;;;4275415;33;20100;-63
2022/06/26 04:08:12;;;;;;;2.92;2.58;;;;;;;;;;4288820;33;20109;-63
2022/06/26 04:10:39;;;;;;;9.00;3.28;;;;;;;;;;4288824;33;20215;-63
2022/06/26 04:13:06;;;;;;;6.32;2.62;;;;;;;;;;4275384;33;20164;-64
2022/06/26 04:15:33;;;;;;;6.35;3.20;;;;;;;;;;4289019;33;20115;-63
2022/06/26 04:18:00;;;;;;;4.03;2.50;;;;;;;;;;4288715;33;20213;-63
2022/06/26 04:20:26;;;;;;;3.15;2.60;;;;;;;;;;4288998;33;20207;-62
2022/06/26 04:23:09;;;;;;;5.45;2.80;;;;;;;;;;4288647;33;20107;-63
2022/06/26 04:25:38;;;;;;;5.32;2.92;;;;;;;;;;4288693;33;20727;-62
2022/06/26 04:28:04;;;;;;;4.93;2.97;;;;;;;;;;4288484;33;20135;-61
2022/06/26 04:30:31;;;;;;;6.35;2.60;;;;;;;;;;4288697;33;20104;-62
2022/06/26 04:32:57;;;;;;;6.72;2.80;;;;;;;;;;4288751;33;20199;-63
2022/06/26 04:35:23;;;;;;;4.30;2.65;;;;;;;;;;4288562;33;20500;-63
2022/06/26 04:37:49;;;;;;;7.43;3.30;;;;;;;;;;4275019;33;20096;-62
2022/06/26 04:40:15;;;;;;;7.28;3.08;;;;;;;;;;4275177;33;20108;-63
2022/06/26 04:42:42;;;;;;;7.30;2.80;;;;;;;;;;4288206;33;20198;-62
2022/06/26 04:45:09;;;;;;;4.20;2.58;;;;;;;;;;4288697;33;20120;-63
2022/06/26 04:47:36;;;;;;;11.32;2.80;;;;;;;;;;4288241;33;20440;-62
2022/06/26 04:50:02;;;;;;;2.92;2.58;;;;;;;;;;4288652;33;20203;-62
2022/06/26 04:52:28;;;;;;;3.40;2.53;;;;;;;;;;4288182;33;20474;-63
2022/06/26 04:54:54;;;;;;;9.40;2.70;;;;;;;;;;4288523;33;20179;-63
2022/06/26 04:57:20;;;;;;;5.78;2.67;;;;;;;;;;4288248;33;20124;-62
2022/06/26 04:59:46;;;;;;;7.30;2.47;;;;;;;;;;4288468;33;20309;-61
2022/06/26 05:02:12;;;;;;;5.95;2.30;;;;;;;;;;4288296;33;20103;-61
2022/06/26 05:04:38;;;;;;;7.62;2.87;;;;;;;;;;4288379;33;20124;-63
2022/06/26 05:07:05;;;;;;;5.37;2.90;;;;;;;;;;4288166;33;20511;-63
2022/06/26 05:09:31;;;;;;;4.87;2.95;;;;;;;;;;4274827;33;20115;-63
2022/06/26 05:11:58;;;;;;;7.50;2.80;;;;;;;;;;4289770;33;20120;-63
2022/06/26 05:14:24;;;;;;;2.83;2.42;;;;;;;;;;4277276;33;20503;-63
2022/06/26 05:16:51;;;;;;;5.95;2.55;;;;;;;;;;4290662;33;20112;-63
2022/06/26 05:19:17;;;;;;;4.25;2.60;;;;;;;;;;4290420;33;20128;-62
2022/06/26 05:21:43;;;;;;;4.20;2.72;;;;;;;;;;4290378;33;20095;-63
2022/06/26 05:24:09;;;;;;;6.05;3.20;;;;;;;;;;4277097;33;20117;-62
2022/06/26 05:26:35;;;;;;;7.28;3.22;;;;;;;;;;4277080;33;20123;-63
2022/06/26 05:29:01;;;;;;;8.63;2.85;;;;;;;;;;4290211;33;20555;-61
2022/06/26 05:31:27;;;;;;;6.75;2.70;;;;;;;;;;4290529;33;20115;-62
2022/06/26 05:33:54;;;;;;;2.85;2.40;;;;;;;;;;4290299;33;20474;-62
2022/06/26 05:36:20;;;;;;;3.05;2.22;;;;;;;;;;4290436;33;20452;-61
2022/06/26 05:38:46;;;;;;;4.85;2.25;;;;;;;;;;4290228;33;20134;-63
2022/06/26 05:41:12;;;;;;;2.70;2.45;;;;;;;;;;4290480;33;20115;-62
2022/06/26 05:43:38;;;;;;;6.43;2.20;;;;;;;;;;4289968;33;20115;-62
2022/06/26 05:46:04;;;;;;;4.60;2.30;;;;;;;;;;4290469;33;20107;-63
2022/06/26 05:48:30;;;;;;;2.55;2.20;;;;;;;;;;4289850;33;20131;-61
2022/06/26 05:50:56;;;;;;;6.35;2.30;;;;;;;;;;4290191;33;20115;-61
2022/06/26 05:53:22;;;;;;;7.25;2.37;;;;;;;;;;4290202;33;20142;-61
2022/06/26 05:55:49;;;;;;;3.58;2.30;;;;;;;;;;4277067;33;20463;-61
2022/06/26 05:58:15;;;;;;;4.05;2.40;;;;;;;;;;4290500;33;20112;-65
2022/06/26 06:00:41;;;;;;;8.60;2.78;;;;;;;;;;4290392;33;20470;-63
2022/06/26 06:03:07;;;;;;;6.05;2.45;;;;;;;;;;4290156;33;20215;-63
2022/06/26 06:05:34;;;;;;;8.15;2.37;;;;;;;;;;4290142;33;20558;-63
2022/06/26 06:08:00;;;;;;;3.95;2.62;;;;;;;;;;4289954;33;20107;-60
2022/06/26 06:10:27;;;;;;;3.87;2.70;;;;;;;;;;4276675;33;20103;-63
2022/06/26 06:12:54;;;;;;;10.43;2.37;;;;;;;;;;4289962;33;20119;-62
2022/06/26 06:15:20;;;;;;;4.55;2.20;;;;;;;;;;4290023;33;20126;-62
2022/06/26 06:17:47;;;;;;;2.70;2.20;;;;;;;;;;4289789;33;20459;-62
2022/06/26 06:20:15;;;;;;;7.60;3.87;;;;;;;;;;4289883;33;20118;-63
2022/06/26 06:22:43;;;;;;;4.62;2.17;;;;;;;;;;4289467;33;20131;-62
2022/06/26 06:25:10;;;;;;;3.72;2.30;;;;;;;;;;4289885;33;20093;-62
2022/06/26 06:27:36;;;;;;;4.50;2.33;;;;;;;;;;4289744;33;20088;-62
2022/06/26 06:30:04;;;;;;;3.87;2.47;;;;;;;;;;4290099;33;20111;-63
2022/06/26 06:32:31;;;;;;;11.23;4.72;;;;;;;;;;4289614;33;20156;-62
2022/06/26 06:34:57;;;;;;;5.35;3.35;;;;;;;;;;4289964;33;20110;-63
2022/06/26 06:37:23;;;;;;;6.18;2.22;;;;;;;;;;4289625;33;20198;-63
2022/06/26 06:39:49;;;;;;;3.62;2.10;;;;;;;;;;4276263;33;20110;-62
2022/06/26 06:42:15;;;;;;;8.57;2.12;;;;;;;;;;4289582;33;20122;-62
2022/06/26 06:44:41;;;;;;;4.40;1.90;;;;;;;;;;4289679;33;20495;-63
2022/06/26 06:47:07;;;;;;;4.90;2.12;;;;;;;;;;4289695;33;20153;-63
2022/06/26 06:49:33;;;;;;;8.27;2.67;;;;;;;;;;4289795;33;20100;-63
2022/06/26 06:51:59;;;;;;;10.30;2.17;;;;;;;;;;4289472;33;20587;-63
2022/06/26 06:54:25;;;;;;;6.18;2.10;;;;;;;;;;4276429;33;20132;-63
2022/06/26 06:56:52;;;;;;;13.05;2.30;;;;;;;;;;4289580;33;20748;-62
2022/06/26 06:59:18;;;;;;;8.25;2.30;;;;;;;;;;4289692;33;20109;-61
2022/06/26 07:01:44;;;;;;;4.85;2.20;;;;;;;;;;4289767;33;20129;-62
2022/06/26 07:04:10;;;;;;;5.43;2.30;;;;;;;;;;4289575;33;20123;-63
2022/06/26 07:06:36;;;;;;;5.32;2.12;;;;;;;;;;4289448;33;20718;-63
2022/06/26 07:09:03;;;;;;;2.35;2.05;;;;;;;;;;4289449;33;20134;-63
2022/06/26 07:11:29;;;;;;;14.32;2.35;;;;;;;;;;4289473;33;20121;-61
2022/06/26 07:13:55;;;;;;;8.65;1.87;;;;;;;;;;4289211;33;20139;-61
2022/06/26 07:16:21;;;;;;;2.47;2.10;;;;;;;;;;4289476;33;20625;-62
2022/06/26 07:18:47;;;;;;;2.97;2.15;;;;;;;;;;4289435;33;20221;-63
2022/06/26 07:21:13;;;;;;;6.93;2.47;;;;;;;;;;4289397;33;20144;-62
2022/06/26 07:23:39;;;;;;;3.42;1.87;;;;;;;;;;4289127;33;20222;-61
2022/06/26 07:26:05;;;;;;;6.03;2.10;;;;;;;;;;4289343;33;20133;-62
2022/06/26 07:28:31;;;;;;;7.50;2.17;;;;;;;;;;4289178;33;20515;-63
2022/06/26 07:30:57;;;;;;;10.95;2.33;;;;;;;;;;4289316;33;20115;-63
2022/06/26 07:36:08;;;;;;;4.00;1.80;;;;;;;;;;4275779;33;20547;-62
2022/06/26 07:38:34;;;;;;;4.80;2.50;;;;;;;;;;4289184;33;20423;-62
2022/06/26 07:41:00;;;;;;;6.78;2.25;;;;;;;;;;4289350;33;20218;-62
2022/06/26 07:43:26;;;;;;;10.27;2.15;;;;;;;;;;4288977;33;20197;-62
2022/06/26 07:45:52;;;;;;;5.87;2.10;;;;;;;;;;4289180;33;20209;-62
2022/06/26 07:48:18;;;;;;;6.07;2.00;;;;;;;;;;4275953;33;20511;-61
2022/06/26 07:50:44;;;;;;;2.60;1.75;;;;;;;;;;4289144;33;20131;-62
2022/06/26 07:53:10;;;;;;;3.78;2.05;;;;;;;;;;4289235;33;20114;-61
2022/06/26 07:55:36;;;;;;;6.82;2.00;;;;;;;;;;4289212;33;20130;-61
2022/06/26 07:58:02;;;;;;;7.53;2.15;;;;;;;;;;4288774;33;20112;-62
2022/06/26 08:00:28;;;;;;;2.75;1.90;;;;;;;;;;4275606;33;20107;-61
2022/06/26 08:02:54;;;;;;;2.17;1.50;;;;;;;;;;4288835;33;20142;-62
2022/06/26 08:05:20;;;;;;;3.42;1.90;;;;;;;;;;4288920;33;20198;-62
2022/06/26 08:07:46;;;;;;;3.97;1.75;;;;;;;;;;4288693;33;20191;-62
2022/06/26 08:10:12;;;;;;;2.58;2.00;;;;;;;;;;4275690;33;20098;-61
2022/06/26 08:12:38;;;;;;;9.70;2.53;;;;;;;;;;4288735;33;20127;-62
2022/06/26 08:15:05;;;;;;;4.12;1.90;;;;;;;;;;4275750;33;20511;-63
2022/06/26 08:17:31;;;;;;;6.00;1.85;;;;;;;;;;4288680;33;20543;-63
2022/06/26 08:19:57;;;;;;;5.65;2.00;;;;;;;;;;4289013;33;20201;-61
2022/06/26 08:22:23;;;;;;;2.40;1.83;;;;;;;;;;4288814;33;20131;-62
2022/06/26 08:24:49;;;;;;;3.03;1.65;;;;;;;;;;4288712;33;20100;-63
2022/06/26 08:27:15;;;;;;;7.75;1.70;;;;;;;;;;4288610;33;20527;-63
2022/06/26 08:29:41;;;;;;;3.58;1.80;;;;;;;;;;4288773;33;20095;-62
2022/06/26 08:32:07;;;;;;;2.40;1.70;;;;;;;;;;4288911;33;20123;-62
2022/06/26 08:34:33;;;;;;;2.45;1.90;;;;;;;;;;4275061;33;20119;-62
2022/06/26 08:36:59;;;;;;;5.00;1.73;;;;;;;;;;4288633;33;20456;-64
2022/06/26 08:39:25;;;;;;;3.85;1.95;;;;;;;;;;4288349;33;20150;-63
2022/06/26 08:41:56;;;;;;;3.50;2.10;;;;;;;;;;4288554;33;20123;-61
2022/06/26 08:44:24;;;;;;;3.33;1.50;;;;;;;;;;4288799;33;20498;-60
2022/06/26 08:46:53;;;;;;;8.00;1.67;;;;;;;;;;4277434;33;20092;-61
2022/06/26 08:49:21;;;;;;;5.30;1.90;;;;;;;;;;4290658;33;20111;-62
2022/06/26 08:51:48;;;;;;;3.67;2.08;;;;;;;;;;4277287;33;20182;-62
2022/06/26 08:54:15;;;;;;;9.27;4.05;;;;;;;;;;4290692;33;20151;-62
2022/06/26 08:56:43;;;;;;;30.73;3.10;;;;;;;;;;4277511;33;20084;-62
2022/06/26 08:59:10;;;;;;;4.78;2.10;;;;;;;;;;4290428;33;20100;-62
2022/06/26 09:01:37;;;;;;;4.22;2.03;;;;;;;;;;4290553;33;20495;-62
2022/06/26 09:04:03;;;;;;;3.33;1.73;;;;;;;;;;4290527;33;20523;-62
2022/06/26 09:06:29;;;;;;;2.33;1.80;;;;;;;;;;4290765;33;20087;-62
2022/06/26 09:08:55;;;;;;;4.55;2.10;;;;;;;;;;4290291;33;20221;-62
2022/06/26 09:11:21;;;;;;;2.30;1.90;;;;;;;;;;4290811;33;20103;-62
2022/06/26 09:13:49;;;;;;;2.00;1.80;;;;;;;;;;4290305;33;20134;-62
2022/06/26 09:16:15;;;;;;;2.72;1.80;;;;;;;;;;4290495;33;20118;-62
2022/06/26 09:18:43;;;;;;;2.20;1.77;;;;;;;;;;4290332;33;20142;-62
2022/06/26 09:21:10;;;;;;;1.85;1.60;;;;;;;;;;4290490;33;20443;-61
2022/06/26 09:23:37;;;;;;;5.47;2.10;;;;;;;;;;4290286;33;20503;-61
2022/06/26 09:26:04;;;;;;;7.47;2.22;;;;;;;;;;4290335;33;20617;-62
2022/06/26 09:28:31;;;;;;;1.80;1.70;;;;;;;;;;4289961;33;20111;-63
2022/06/26 09:31:05;;;;;;;1.90;1.40;;;;;;;;;;4277317;33;20115;-65
2022/06/26 09:33:36;;;;;;;1.50;1.40;;;;;;;;;;4290171;33;20163;-66
2022/06/26 09:36:03;;;;;;;4.97;1.90;;;;;;;;;;4265327;33;20503;-64
2022/06/26 09:38:32;;;;;;;2.28;1.70;;;;;;;;;;4290180;33;20088;-64
2022/06/26 09:41:00;;;;;;;1.90;1.65;;;;;;;;;;4290300;33;20104;-64
2022/06/26 09:43:31;;;;;;;1.30;1.30;;;;;;;;;;4289863;33;20447;-63
2022/06/26 09:45:59;;;;;;;1.40;1.30;;;;;;;;;;4290248;33;20111;-63
2022/06/26 09:48:26;;;;;;;1.60;1.50;;;;;;;;;;4290079;33;20309;-63
2022/06/26 09:50:53;;;;;;;1.58;1.48;;;;;;;;;;4290300;33;20142;-63
2022/06/26 09:53:20;;;;;;;1.20;1.20;;;;;;;;;;4277030;33;20495;-63
2022/06/26 09:55:50;;;;;;;1.73;1.62;;;;;;;;;;4276777;33;20127;-64
2022/06/26 09:58:17;;;;;;;3.15;1.33;;;;;;;;;;4289607;33;20124;-63
2022/06/26 10:06:25;;;;;;;1.48;1.37;;;;;;;;;;4277046;33;20479;-63
2022/06/26 10:06:28;;;;;;;1.27;1.17;;;;;;;;;;4290116;33;20146;-63
2022/06/26 10:08:59;;;;;;;6.15;1.70;;;;;;;;;;4289793;33;20211;-63
2022/06/26 10:11:27;;;;;;;1.90;1.35;;;;;;;;;;4276674;33;20115;-63
2022/06/26 10:13:57;;;;;;;1.92;1.80;;;;;;;;;;4288325;33;20162;-63
2022/06/26 10:16:33;;;;;;;1.60;1.50;;;;;;;;;;4262706;33;20134;-63
2022/06/26 10:19:18;;;;;;;1.58;1.48;;;;;;;;;;4290150;33;20115;-63
2022/06/26 10:21:45;;;;;;;1.65;1.35;;;;;;;;;;4274432;33;20194;-61
2022/06/26 10:24:12;;;;;;;3.45;1.73;;;;;;;;;;4264554;33;20139;-62
2022/06/26 10:26:38;;;;;;;1.90;1.65;;;;;;;;;;4272881;33;20452;-64
2022/06/26 10:29:06;;;;;;;1.50;1.40;;;;;;;;;;4289317;33;20142;-62
2022/06/26 10:31:49;;;;;;;1.40;1.23;;;;;;;;;;4289053;33;20115;-61
2022/06/26 10:34:22;;;;;;;3.10;1.73;;;;;;;;;;4289658;33;20099;-63
2022/06/26 10:37:10;;;;;;;2.28;1.08;;;;;;;;;;4276504;33;20106;-63
2022/06/26 10:39:46;;;;;;;6.37;2.20;;;;;;;;;;4289558;33;20185;-62
2022/06/26 10:45:31;;;;;;;1.02;1.02;;;;;;;;;;4270749;33;20108;-63
2022/06/26 10:48:14;;;;;;;2.45;1.80;;;;;;;;;;4289808;33;20111;-63
2022/06/26 10:50:41;;;;;;;2.42;1.90;;;;;;;;;;4289911;33;20123;-63
2022/06/26 10:53:15;;;;;;;1.37;1.27;;;;;;;;;;4289659;33;20554;-63
2022/06/26 10:55:43;;;;;;;0.95;0.95;;;;;;;;;;4289553;33;20091;-64
2022/06/26 10:58:12;;;;;;;1.95;1.85;;;;;;;;;;4276289;33;20116;-64
2022/06/26 11:00:38;;;;;;;1.58;1.48;;;;;;;;;;4276322;33;20486;-64
2022/06/26 11:03:13;;;;;;;1.65;1.05;;;;;;;;;;4275373;33;20108;-62
2022/06/26 11:05:39;;;;;;;1.40;1.30;;;;;;;;;;4289720;33;20209;-64
2022/06/26 11:08:05;;;;;;;1.23;1.23;;;;;;;;;;4288739;33;20127;-62
2022/06/26 11:10:33;;;;;;;1.33;1.23;;;;;;;;;;4289409;33;20103;-63
2022/06/26 11:13:00;;;;;;;1.35;1.25;;;;;;;;;;4263559;33;20671;-62
2022/06/26 11:15:33;;;;;;;1.52;1.42;;;;;;;;;;4285368;33;20106;-63
2022/06/26 11:18:04;;;;;;;1.25;1.15;;;;;;;;;;4281679;33;20215;-62
2022/06/26 11:20:47;;;;;;;2.95;1.35;;;;;;;;;;4280864;33;20093;-63
2022/06/26 11:23:32;;;;;;;1.75;1.30;;;;;;;;;;4267905;33;20127;-61
2022/06/26 11:26:22;;;;;;;1.60;1.50;;;;;;;;;;4268675;33;20464;-62
2022/06/26 11:29:02;;;;;;;1.20;1.20;;;;;;;;;;4283709;33;20112;-64
2022/06/26 11:31:30;;;;;;;3.50;1.48;;;;;;;;;;4274390;33;20120;-62
2022/06/26 11:34:16;;;;;;;1.30;1.20;;;;;;;;;;4271199;33;20103;-63
2022/06/26 11:36:53;;;;;;;1.80;1.70;;;;;;;;;;4255858;33;20138;-64
2022/06/26 11:39:20;;;;;;;3.97;1.40;;;;;;;;;;4266672;33;20108;-62
2022/06/26 11:41:47;;;;;;;1.40;1.20;;;;;;;;;;4280050;33;20493;-63
2022/06/26 11:44:13;;;;;;;1.83;1.30;;;;;;;;;;4280397;33;20127;-63
2022/06/26 11:46:40;;;;;;;2.78;1.62;;;;;;;;;;4255721;33;20103;-63
2022/06/26 11:49:09;;;;;;;4.82;1.45;;;;;;;;;;4281533;33;20492;-63
2022/06/26 11:51:35;;;;;;;1.30;1.20;;;;;;;;;;4267464;33;20119;-63
2022/06/26 11:54:01;;;;;;;2.35;1.20;;;;;;;;;;4280666;33;20095;-64
2022/06/26 11:56:28;;;;;;;2.37;1.30;;;;;;;;;;4281412;33;20127;-64
2022/06/26 11:58:56;;;;;;;2.15;1.50;;;;;;;;;;4280307;33;20211;-63
2022/06/26 12:01:31;;;;;;;3.70;1.40;;;;;;;;;;4280421;33;20160;-64
2022/06/26 12:03:57;;;;;;;0.95;0.95;;;;;;;;;;4282739;33;20198;-68
2022/06/26 12:06:29;;;;;;;1.30;1.15;;;;;;;;;;4280601;33;20288;-63
2022/06/26 12:08:58;;;;;;;3.95;1.30;;;;;;;;;;4267650;33;20175;-64
2022/06/26 12:11:25;;;;;;;1.23;1.23;;;;;;;;;;4269184;33;20097;-64
2022/06/26 12:13:51;;;;;;;1.50;1.40;;;;;;;;;;4270085;33;20550;-63
2022/06/26 12:16:21;;;;;;;2.87;1.20;;;;;;;;;;4250470;33;20115;-63
2022/06/26 12:18:49;;;;;;;3.95;1.42;;;;;;;;;;4265124;33;20096;-64
2022/06/26 12:21:21;;;;;;;0.93;0.93;;;;;;;;;;4283319;33;20107;-62
2022/06/26 12:23:49;;;;;;;1.30;1.20;;;;;;;;;;4282098;33;20128;-69
2022/06/26 12:26:21;;;;;;;1.42;1.33;;;;;;;;;;4270105;33;20088;-62
2022/06/26 12:28:52;;;;;;;1.10;1.10;;;;;;;;;;4271577;33;20116;-65
2022/06/26 12:31:20;;;;;;;5.47;1.40;;;;;;;;;;4282371;33;20111;-65
2022/06/26 12:33:47;;;;;;;6.70;1.27;;;;;;;;;;4268768;33;20128;-64
2022/06/26 12:36:14;;;;;;;2.10;1.40;;;;;;;;;;4259368;33;20515;-64
2022/06/26 12:38:40;;;;;;;0.77;0.77;;;;;;;;;;4290496;33;20175;-63
2022/06/26 12:41:16;;;;;;;1.87;1.10;;;;;;;;;;4290770;33;20123;-63
2022/06/26 12:43:46;;;;;;;1.55;1.37;;;;;;;;;;4278082;33;20119;-65
2022/06/26 12:46:12;;;;;;;4.05;1.05;;;;;;;;;;4290480;33;20111;-66
2022/06/26 12:48:39;;;;;;;1.12;1.02;;;;;;;;;;4290743;33;20126;-63
2022/06/26 12:51:05;;;;;;;6.15;1.20;;;;;;;;;;4277301;33;20147;-65
2022/06/26 12:53:31;;;;;;;2.28;1.15;;;;;;;;;;4290291;33;20119;-66
2022/06/26 12:55:57;;;;;;;1.08;1.08;;;;;;;;;;4277287;33;20129;-62
2022/06/26 12:58:23;;;;;;;3.80;1.27;;;;;;;;;;4276910;33;20592;-64
2022/06/26 13:00:49;;;;;;;1.00;1.00;;;;;;;;;;4290442;33;20131;-65
2022/06/26 13:03:15;;;;;;;4.10;1.60;;;;;;;;;;4288491;33;20119;-64
2022/06/26 13:05:41;;;;;;;2.25;1.20;;;;;;;;;;4285447;33;20188;-65
2022/06/26 13:08:08;;;;;;;0.88;0.88;;;;;;;;;;4274277;33;20195;-65
2022/06/26 13:10:34;;;;;;;5.03;1.20;;;;;;;;;;4274079;33;20300;-66
2022/06/26 13:13:00;;;;;;;1.50;1.40;;;;;;;;;;4273896;33;20124;-65
2022/06/26 13:15:26;;;;;;;2.30;1.30;;;;;;;;;;4274028;33;20134;-65
2022/06/26 13:17:52;;;;;;;1.30;1.20;;;;;;;;;;4273915;33;20385;-66
2022/06/26 13:20:19;;;;;;;1.50;1.40;;;;;;;;;;4274006;33;20203;-66
2022/06/26 13:22:45;;;;;;;1.52;1.25;;;;;;;;;;4274630;33;20092;-66
2022/06/26 13:25:11;;;;;;;1.40;1.30;;;;;;;;;;4275993;33;20126;-66
2022/06/26 13:27:37;;;;;;;1.15;1.08;;;;;;;;;;4275740;33;20234;-66
2022/06/26 13:30:04;;;;;;;1.10;1.10;;;;;;;;;;4275888;33;20115;-66
2022/06/26 13:32:30;;;;;;;7.65;1.52;;;;;;;;;;4275178;33;20135;-65
2022/06/26 13:34:56;;;;;;;3.05;1.20;;;;;;;;;;4262508;33;20222;-66
2022/06/26 13:37:22;;;;;;;1.40;1.30;;;;;;;;;;4275879;33;20562;-66
2022/06/26 13:39:48;;;;;;;2.30;1.35;;;;;;;;;;4275790;33;20110;-66
2022/06/26 13:42:14;;;;;;;1.48;1.35;;;;;;;;;;4276152;33;20096;-65
2022/06/26 13:44:40;;;;;;;1.35;1.25;;;;;;;;;;4276696;33;20119;-64
2022/06/26 13:47:06;;;;;;;2.28;1.37;;;;;;;;;;4276925;33;20484;-66
2022/06/26 13:49:32;;;;;;;1.58;1.48;;;;;;;;;;4290046;33;20102;-65
2022/06/26 13:51:58;;;;;;;1.25;1.15;;;;;;;;;;4290474;33;20115;-66
2022/06/26 13:54:24;;;;;;;3.53;1.45;;;;;;;;;;4289989;33;20111;-67
2022/06/26 13:56:50;;;;;;;0.95;0.95;;;;;;;;;;4290343;33;20103;-65
2022/06/26 13:59:16;;;;;;;1.10;1.00;;;;;;;;;;4290088;33;20197;-66
2022/06/26 14:01:42;;;;;;;1.40;1.30;;;;;;;;;;4290251;33;20123;-66
2022/06/26 14:04:08;;;;;;;1.10;1.10;;;;;;;;;;4290156;33;20104;-66
2022/06/26 14:06:34;;;;;;;1.30;1.20;;;;;;;;;;4290158;33;20122;-66
2022/06/26 14:09:00;;;;;;;1.48;1.37;;;;;;;;;;4276744;33;20206;-67
2022/06/26 14:11:26;;;;;;;1.48;1.37;;;;;;;;;;4290283;33;20444;-66
2022/06/26 14:13:52;;;;;;;1.33;1.20;;;;;;;;;;4276751;33;20118;-64
2022/06/26 14:16:18;;;;;;;1.42;1.30;;;;;;;;;;4290015;33;20135;-66
2022/06/26 14:18:44;;;;;;;1.42;1.10;;;;;;;;;;4264843;33;20106;-65
2022/06/26 14:21:10;;;;;;;2.33;1.48;;;;;;;;;;4290015;33;20190;-65
2022/06/26 14:26:21;;;;;;;1.30;1.20;;;;;;;;;;4278949;33;20123;-70
2022/06/26 14:28:48;;;;;;;1.37;1.27;;;;;;;;;;4289137;33;20618;-65
2022/06/26 14:31:14;;;;;;;1.73;1.27;;;;;;;;;;4276456;33;20483;-65
2022/06/26 14:33:41;;;;;;;2.70;1.30;;;;;;;;;;4280364;33;20116;-66
2022/06/26 14:36:07;;;;;;;1.60;1.20;;;;;;;;;;4268778;33;20100;-65
2022/06/26 14:38:34;;;;;;;3.65;1.75;;;;;;;;;;4260606;33;20108;-66
2022/06/26 14:41:01;;;;;;;1.10;1.10;;;;;;;;;;4262443;33;20135;-67
2022/06/26 14:43:28;;;;;;;8.23;2.08;;;;;;;;;;4280050;33;20136;-66
2022/06/26 14:45:54;;;;;;;3.53;1.60;;;;;;;;;;4289784;33;20139;-65
2022/06/26 14:48:20;;;;;;;1.50;1.40;;;;;;;;;;4289602;33;20610;-66
2022/06/26 14:50:46;;;;;;;3.60;1.80;;;;;;;;;;4289590;33;20123;-65
2022/06/26 14:53:13;;;;;;;1.30;1.20;;;;;;;;;;4289547;33;20119;-65
2022/06/26 14:55:39;;;;;;;1.45;1.35;;;;;;;;;;4289872;33;20093;-67
2022/06/26 14:58:16;;;;;;;1.00;1.00;;;;;;;;;;4263923;33;20463;-65
2022/06/26 15:00:42;;;;;;;1.27;1.17;;;;;;;;;;4265172;33;20171;-67
2022/06/26 15:03:08;;;;;;;4.43;1.30;;;;;;;;;;4281526;33;20123;-63
2022/06/26 15:05:34;;;;;;;1.00;1.00;;;;;;;;;;4276114;33;20135;-65
2022/06/26 15:08:00;;;;;;;2.05;1.50;;;;;;;;;;4289473;33;20107;-65
2022/06/26 15:10:26;;;;;;;6.62;1.73;;;;;;;;;;4289355;33;20217;-66
2022/06/26 15:12:52;;;;;;;1.52;1.40;;;;;;;;;;4289434;33;20088;-64
2022/06/26 15:15:19;;;;;;;2.95;1.25;;;;;;;;;;4289455;33;20229;-64
2022/06/26 15:17:45;;;;;;;3.42;1.27;;;;;;;;;;4276298;33;20524;-67
2022/06/26 15:20:12;;;;;;;1.00;1.00;;;;;;;;;;4289648;33;20122;-68
2022/06/26 15:22:38;;;;;;;1.33;1.23;;;;;;;;;;4289279;33;20191;-67
2022/06/26 15:25:05;;;;;;;1.33;1.23;;;;;;;;;;4252530;33;20198;-68
2022/06/26 15:27:31;;;;;;;1.33;1.23;;;;;;;;;;4275842;33;20258;-64
2022/06/26 15:29:57;;;;;;;1.90;1.35;;;;;;;;;;4289252;33;20233;-78